Westmoreland City, Pennsylvania
Current Conditions -  °F | °C
As of 2:53 AM on Friday 31 Oct 2014 (Local Time) from KAGC Reporting Station
Overcast Overcast  
Wind Chill: 45°   Ceiling: 4700
Heat Index: 45°   Visibility: 10mi
Dew Point: 34°   Wind: 3mph
Humidity: 65%   Direction: 250°WSW
Pressure: 29.99"   Gusts: NA
Location:  40.33°N, 79.68°W
Report Text: KAGC 310653Z 25003KT 10SM OVC047 07/01 A2999 RMK AO2 SLP163 T00720011
Loading
Personal Weather Stations






























Interactive Weather Map
Tropical Storm Tracking
New forecast layout! Learn more

10-Day Weather Forecast

Advertisements
Track Severe Weather on mobile